Main page
METAR-TAF:

METAR-TAF

Airports :

Sukkur Airport

Sukkur, Pakistan

latitude: 27-43-19N, longitude: 068-47-31E, elevation: 60 m

Current weather observation

The report was made 39 minutes ago, at 03:00 UTC
Wind 4 kt from the Northeast
Temperature 27°C
Humidity 70%
Pressure
Visibility: 1008 m
Few clouds at a height of 10000 ft
Scattered clouds at a height of 20000 ft
haze

METAR: OPSK 230300Z 05004KT 3000 HZ FEW100 SCT200 27/21 QNH 1008 NOSIG

Time: 08:39 (03:39 UTC)

Forecast

The report was made 5 hours and 39 minutes ago, at 22:00 UTC
Forecast valid from 23 at 00 UTC to 23 at 24 UTC
Wind 8 kt from the East
Visibility: 4000 m
Few clouds at a height of 3000 ft
Scattered clouds at a height of 10000 ft
haze
Temporary
from 23 at 00 UTC to 23 at 04 UTC
Wind 5 kt from the Northeast
Visibility: 2500 m
haze

TAF: OPSK 222200Z 2300/2324 09008KT 4000 HZ FEW030 SCT100 TEMPO 2300/2304 05005KT 2500 HZ NSC

Weather observations and forecasts of more than 4000 airports (METAR and TAF reports).

The available stations are represented by yellow and red dots on the map.

Hover mouse over dot to see the name of the station.

Then click to see weather observations and forecasts.

To change the map : click on the green buttons with a black cross to zoom in, on the green button with a dash to zoom out, or on the green arrows for adjacent maps.


METAR-TAF: